Time;durP1;ratioP1;P1;durP2;ratioP2;P2;SDS_P1;SDS_P2;PMS_P1;PMS_P2;Temp;Humidity;BMP_temperature;BMP_pressure;BME280_temperature;BME280_humidity;BME280_pressure;Samples;Min_cycle;Max_cycle;Signal;HPM_P1;HPM_P2
2023/08/12 00:03:53;;;;;;;6.82;6.18;;;18.50;99.90;;;19.44;100.00;98226.31;10513871;28;20797;-71
2023/08/12 00:08:56;;;;;;;6.93;6.28;;;18.50;99.90;;;19.27;100.00;98224.09;10517965;28;20227;-71
2023/08/12 00:14:01;;;;;;;6.85;6.35;;;18.40;99.90;;;19.24;100.00;98218.84;10504344;28;20232;-72
2023/08/12 00:19:04;;;;;;;7.63;6.80;;;18.40;99.90;;;19.22;100.00;98225.69;10516051;28;20223;-70
2023/08/12 00:24:07;;;;;;;6.03;5.45;;;18.40;99.90;;;19.23;100.00;98218.78;10509932;28;20702;-71
2023/08/12 00:29:12;;;;;;;6.63;6.05;;;18.40;99.90;;;19.26;100.00;98213.72;10514849;28;20227;-71
2023/08/12 00:34:15;;;;;;;7.38;6.68;;;18.40;99.90;;;19.22;100.00;98219.63;10515807;28;20261;-71
2023/08/12 00:39:18;;;;;;;6.30;5.80;;;18.30;99.90;;;19.17;100.00;98218.59;10508655;28;20232;-71
2023/08/12 00:44:23;;;;;;;5.88;5.28;;;18.20;99.90;;;19.07;100.00;98212.28;10514404;28;20229;-71
2023/08/12 00:49:27;;;;;;;6.10;5.60;;;18.10;99.90;;;18.98;100.00;98204.25;10507795;28;20420;-71
2023/08/12 00:54:31;;;;;;;6.40;5.95;;;18.10;99.90;;;18.80;100.00;98197.69;10515329;28;20314;-71
2023/08/12 00:59:37;;;;;;;6.25;5.75;;;17.90;99.90;;;18.84;100.00;98189.16;10513263;28;20322;-72
2023/08/12 01:04:40;;;;;;;6.72;6.20;;;18.00;99.90;;;18.82;100.00;98188.22;10509678;28;20234;-71
2023/08/12 01:09:44;;;;;;;6.88;6.25;;;17.90;99.90;;;18.78;100.00;98188.13;10513360;28;20216;-71
2023/08/12 01:14:57;;;;;;;6.20;5.70;;;17.90;99.90;;;18.67;100.00;98183.44;10517625;28;20216;-71
2023/08/12 01:20:05;;;;;;;5.78;5.18;;;17.80;99.90;;;18.69;100.00;98175.75;10517698;28;20216;-71
2023/08/12 01:25:10;;;;;;;6.90;6.20;;;17.80;99.90;;;18.62;100.00;98173.78;10503948;28;20212;-72
2023/08/12 01:30:14;;;;;;;6.35;5.95;;;17.70;99.90;;;18.64;100.00;98167.81;10507431;28;20611;-71
2023/08/12 01:35:22;;;;;;;6.00;5.60;;;17.70;99.90;;;18.63;100.00;98165.19;10501032;28;20232;-71
2023/08/12 01:40:29;;;;;;;6.95;6.13;;;17.70;99.90;;;18.52;100.00;98156.22;10505540;28;20303;-72
2023/08/12 01:45:32;;;;;;;6.22;5.25;;;17.60;99.90;;;18.48;100.00;98162.13;10514567;28;20220;-72
2023/08/12 01:50:36;;;;;;;6.20;5.57;;;17.50;99.90;;;18.50;100.00;98160.47;10513915;28;20713;-71
2023/08/12 01:55:45;;;;;;;6.72;5.95;;;17.50;99.90;;;18.48;100.00;98156.94;10512673;28;20255;-72
2023/08/12 02:00:48;;;;;;;6.22;5.72;;;17.50;99.90;;;18.27;100.00;98149.41;10513280;28;20307;-72
2023/08/12 02:05:52;;;;;;;6.95;5.60;;;17.40;99.90;;;18.33;100.00;98150.47;10517996;28;20224;-71
2023/08/12 02:10:56;;;;;;;6.75;6.22;;;17.40;99.90;;;18.27;100.00;98144.22;10512154;28;20224;-72
2023/08/12 02:15:59;;;;;;;6.35;5.85;;;17.40;99.90;;;18.29;100.00;98145.16;10508066;28;20281;-71
2023/08/12 02:21:02;;;;;;;5.80;5.30;;;17.40;99.90;;;18.15;100.00;98139.56;10517949;28;20273;-71
2023/08/12 02:26:07;;;;;;;6.30;5.80;;;17.30;99.90;;;18.06;100.00;98134.09;10516755;28;20238;-72
2023/08/12 02:31:10;;;;;;;6.70;6.10;;;17.20;99.90;;;18.07;100.00;98136.72;10516473;28;20220;-72
2023/08/12 02:36:13;;;;;;;6.75;6.15;;;17.20;99.90;;;18.08;100.00;98142.75;10520969;28;20288;-72
2023/08/12 02:41:18;;;;;;;6.53;6.00;;;17.20;99.90;;;18.07;100.00;98135.84;10527118;28;20242;-71
2023/08/12 02:46:21;;;;;;;6.35;5.75;;;17.20;99.90;;;18.11;100.00;98137.69;10510484;28;20224;-71
2023/08/12 02:51:24;;;;;;;6.80;6.22;;;17.20;99.90;;;18.15;100.00;98129.19;10516707;28;20231;-72
2023/08/12 02:56:29;;;;;;;6.55;5.95;;;17.30;99.90;;;18.26;100.00;98130.41;10520805;28;20220;-71
2023/08/12 03:01:32;;;;;;;6.15;5.75;;;17.40;99.90;;;18.32;100.00;98135.78;10517128;28;20571;-71
2023/08/12 03:06:35;;;;;;;6.30;5.80;;;17.50;99.90;;;18.38;100.00;98124.75;10520090;28;20304;-69
2023/08/12 03:11:40;;;;;;;6.10;5.50;;;17.50;99.90;;;18.38;100.00;98115.25;10516637;28;20227;-71
2023/08/12 03:16:43;;;;;;;6.40;5.28;;;17.40;99.90;;;18.26;100.00;98108.81;10520799;28;20223;-71
2023/08/12 03:21:46;;;;;;;6.60;5.60;;;17.40;99.90;;;18.16;100.00;98107.66;10514667;28;20224;-71
2023/08/12 03:26:51;;;;;;;6.65;6.15;;;17.30;99.90;;;18.28;100.00;98108.03;10509777;28;20221;-71
2023/08/12 03:31:54;;;;;;;6.82;6.32;;;17.50;99.90;;;18.35;100.00;98110.00;10511904;28;20699;-71
2023/08/12 03:36:57;;;;;;;6.40;5.90;;;17.60;99.90;;;18.40;100.00;98103.25;10513675;28;20608;-71
2023/08/12 03:42:02;;;;;;;6.13;5.72;;;17.60;99.90;;;18.41;100.00;98099.81;10517873;28;20250;-72
2023/08/12 03:47:05;;;;;;;5.82;5.32;;;17.60;99.90;;;18.39;100.00;98091.13;10509232;28;20227;-70
2023/08/12 03:52:08;;;;;;;6.45;5.90;;;17.60;99.90;;;18.42;100.00;98095.50;10515203;28;20632;-71
2023/08/12 03:57:13;;;;;;;6.72;6.22;;;17.50;99.90;;;18.41;100.00;98086.00;10516278;28;20231;-71
2023/08/12 04:02:16;;;;;;;7.60;7.00;;;17.60;99.90;;;18.39;100.00;98085.94;10507525;28;20694;-71
2023/08/12 04:07:20;;;;;;;7.28;6.60;;;17.60;99.90;;;18.46;100.00;98087.91;10510338;28;20238;-71
2023/08/12 04:12:24;;;;;;;7.07;6.53;;;17.70;99.90;;;18.59;100.00;98090.84;10514473;28;20608;-71
2023/08/12 04:17:27;;;;;;;7.80;6.95;;;17.80;99.90;;;18.71;100.00;98085.13;10509705;28;20297;-71
2023/08/12 04:22:30;;;;;;;7.95;7.25;;;17.90;99.90;;;18.81;100.00;98085.47;10513879;28;20236;-71
2023/08/12 04:27:35;;;;;;;7.22;6.57;;;18.00;99.90;;;18.96;100.00;98085.03;10518807;28;20231;-70
2023/08/12 04:32:38;;;;;;;6.70;6.05;;;18.10;99.90;;;19.16;100.00;98079.50;10509981;28;20908;-71
2023/08/12 04:37:41;;;;;;;6.65;6.13;;;18.10;99.90;;;19.05;100.00;98086.97;10513491;28;20309;-70
2023/08/12 04:42:46;;;;;;;6.95;6.38;;;18.00;99.90;;;19.11;100.00;98094.91;10517543;28;20262;-71
2023/08/12 04:47:49;;;;;;;7.00;6.50;;;18.00;99.90;;;19.12;100.00;98087.19;10515466;28;20230;-70
2023/08/12 04:52:52;;;;;;;6.43;5.93;;;18.00;99.90;;;19.10;100.00;98095.78;10514060;28;20302;-70
2023/08/12 04:57:57;;;;;;;7.20;6.60;;;18.00;99.90;;;19.04;100.00;98099.06;10514678;28;20345;-71
2023/08/12 05:03:00;;;;;;;6.97;6.35;;;18.10;99.90;;;18.99;100.00;98095.47;10512411;28;20224;-71
2023/08/12 05:08:04;;;;;;;7.50;6.90;;;18.10;99.90;;;19.00;100.00;98098.94;10510488;28;20234;-71
2023/08/12 05:13:08;;;;;;;7.80;7.13;;;18.10;99.90;;;19.15;100.00;98106.28;10515821;28;20232;-70
2023/08/12 05:18:11;;;;;;;7.47;6.82;;;18.10;99.90;;;19.16;100.00;98108.03;10520464;28;20232;-71
2023/08/12 05:23:14;;;;;;;8.07;6.70;;;18.20;99.90;;;19.19;100.00;98110.69;10510274;28;20329;-71
2023/08/12 05:28:19;;;;;;;8.57;7.22;;;18.30;99.90;;;19.27;100.00;98117.84;10511787;28;20748;-70
2023/08/12 05:33:22;;;;;;;8.30;7.47;;;18.30;99.90;;;19.26;100.00;98116.09;10512530;28;20272;-70
2023/08/12 05:38:26;;;;;;;8.07;7.28;;;18.30;99.90;;;19.40;100.00;98115.56;10508414;28;20254;-71
2023/08/12 05:43:30;;;;;;;7.55;6.63;;;18.40;99.90;;;19.39;100.00;98113.81;10512257;28;20242;-71
2023/08/12 05:48:33;;;;;;;7.03;6.53;;;18.40;99.90;;;19.44;100.00;98104.44;10515319;28;20224;-71
2023/08/12 05:53:36;;;;;;;7.45;6.85;;;18.50;99.90;;;19.34;100.00;98126.63;10508129;28;20240;-71
2023/08/12 05:58:41;;;;;;;7.03;6.43;;;18.50;99.90;;;19.59;100.00;98125.56;10503297;28;20227;-72
2023/08/12 06:03:44;;;;;;;7.25;6.68;;;18.60;99.90;;;19.71;100.00;98131.09;10504471;28;20919;-71
2023/08/12 06:08:47;;;;;;;8.07;7.00;;;18.70;99.90;;;20.04;99.53;98119.81;10509812;28;20723;-71
2023/08/12 06:13:52;;;;;;;6.95;6.32;;;19.00;99.90;;;20.42;98.28;98118.09;10505741;28;20235;-70
2023/08/12 06:18:55;;;;;;;6.63;6.00;;;19.50;99.90;;;21.42;91.32;98107.19;10488914;28;20722;-71
2023/08/12 06:23:58;;;;;;;7.05;6.30;;;20.40;99.90;;;21.35;89.79;98120.91;10512705;28;20228;-71
2023/08/12 06:29:02;;;;;;;6.80;6.28;;;20.20;99.90;;;21.22;92.43;98126.69;10513693;28;20228;-71
2023/08/12 06:34:08;;;;;;;6.78;6.28;;;20.30;99.90;;;21.41;91.82;98123.63;10515696;28;20231;-72
2023/08/12 06:39:11;;;;;;;6.97;6.32;;;20.40;99.90;;;21.66;90.70;98116.25;10520158;28;20224;-71
2023/08/12 06:44:16;;;;;;;6.82;6.25;;;20.60;99.90;;;21.87;89.83;98115.75;10513607;28;20219;-71
2023/08/12 06:49:19;;;;;;;6.45;5.90;;;20.90;99.90;;;22.17;88.16;98110.16;10523614;28;20232;-72
2023/08/12 06:54:24;;;;;;;5.90;5.50;;;21.10;99.90;;;22.20;88.20;98112.81;10511361;28;20224;-71
2023/08/12 06:59:28;;;;;;;7.32;5.80;;;21.20;99.90;;;22.22;88.32;98105.91;10513671;28;20246;-70
2023/08/12 07:04:32;;;;;;;6.35;5.85;;;21.30;99.90;;;22.30;87.96;98100.84;10515045;28;20649;-72
2023/08/12 07:09:35;;;;;;;6.60;6.00;;;21.30;99.90;;;22.16;88.65;98096.25;10511086;28;20651;-72
2023/08/12 07:14:39;;;;;;;6.93;6.20;;;21.20;99.90;;;22.24;89.05;98102.50;10512079;28;20227;-72
2023/08/12 07:19:42;;;;;;;6.43;5.82;;;21.40;99.90;;;22.41;89.19;98089.72;10516846;28;20228;-73
2023/08/12 07:24:46;;;;;;;6.53;5.93;;;21.60;99.90;;;22.65;89.27;98103.91;10524379;28;20223;-72
2023/08/12 07:29:50;;;;;;;6.65;6.05;;;21.80;99.90;;;22.91;87.98;98092.06;10515116;28;20232;-72
2023/08/12 07:34:53;;;;;;;7.05;6.45;;;22.00;99.90;;;23.18;87.58;98082.88;10507974;28;20224;-73
2023/08/12 07:39:57;;;;;;;6.90;6.30;;;22.40;99.90;;;24.33;82.07;98088.19;10513310;28;20236;-72
2023/08/12 07:45:01;;;;;;;7.47;6.03;;;23.30;99.90;;;25.75;75.42;98086.06;10516096;28;20750;-72
2023/08/12 07:50:06;;;;;;;7.25;6.05;;;24.40;99.90;;;27.42;66.80;98078.69;10518177;28;20238;-72
2023/08/12 07:55:09;;;;;;;6.50;5.65;;;25.70;99.90;;;29.31;54.39;98088.19;10513607;28;20227;-72
2023/08/12 08:00:14;;;;;;;6.53;5.47;;;27.30;99.90;;;29.05;54.70;98091.19;10506440;28;20710;-72
2023/08/12 08:05:18;;;;;;;5.75;5.25;;;27.10;99.90;;;28.39;56.33;98094.53;10515510;28;20249;-72
2023/08/12 08:10:21;;;;;;;6.57;4.82;;;26.80;99.90;;;28.05;58.77;98100.09;10512356;28;20288;-73
2023/08/12 08:15:26;;;;;;;5.15;4.68;;;26.50;99.90;;;28.02;61.66;98089.63;10514753;28;20234;-73
2023/08/12 08:20:29;;;;;;;5.70;5.20;;;26.70;99.90;;;29.04;56.36;98082.38;10514750;28;20303;-74
2023/08/12 08:25:32;;;;;;;5.63;5.13;;;28.20;99.90;;;29.45;54.18;98088.84;10520631;28;20710;-74
2023/08/12 08:30:38;;;;;;;5.53;5.05;;;28.40;99.90;;;29.85;51.65;98088.28;10515969;28;20224;-75
2023/08/12 08:35:41;;;;;;;4.70;4.30;;;28.60;99.90;;;30.34;49.96;98095.34;10517458;28;20227;-72
2023/08/12 08:40:44;;;;;;;5.60;5.10;;;29.40;99.60;;;30.71;49.00;98094.66;10512660;28;20225;-75
2023/08/12 08:45:51;;;;;;;5.32;4.78;;;29.70;98.80;;;30.75;47.51;98080.47;10517570;28;20230;-74
2023/08/12 08:50:55;;;;;;;4.97;4.57;;;29.30;98.20;;;30.57;49.88;98083.50;10504688;28;20229;-74
2023/08/12 08:56:00;;;;;;;5.28;4.78;;;29.50;99.20;;;30.86;47.19;98075.88;10507046;28;20235;-74
2023/08/12 09:01:07;;;;;;;5.03;4.28;;;30.00;97.10;;;30.59;47.92;98085.22;10517531;28;20296;-72
2023/08/12 09:06:11;;;;;;;4.53;4.22;;;29.50;97.50;;;30.48;47.10;98081.91;10511217;28;20231;-72
2023/08/12 09:11:16;;;;;;;6.18;5.00;;;29.30;97.00;;;31.03;46.83;98079.94;10503374;28;20289;-72
2023/08/12 09:16:21;;;;;;;5.63;5.13;;;30.20;96.30;;;31.30;46.26;98081.94;10509514;28;20227;-74
2023/08/12 09:21:24;;;;;;;4.85;4.40;;;30.30;95.70;;;31.85;44.72;98080.69;10513522;28;20601;-73
2023/08/12 09:26:29;;;;;;;5.38;4.53;;;31.20;94.50;;;32.35;43.81;98076.81;10515624;28;20318;-73
2023/08/12 09:31:34;;;;;;;5.00;4.60;;;31.70;93.60;;;32.23;43.96;98072.72;10514018;28;20322;-74
2023/08/12 09:36:37;;;;;;;5.15;4.75;;;31.30;93.80;;;32.25;43.51;98071.78;10524460;28;20303;-74
2023/08/12 09:41:40;;;;;;;4.13;3.83;;;31.40;93.40;;;31.95;44.31;98064.63;10525136;28;20796;-73
2023/08/12 09:46:45;;;;;;;4.55;4.20;;;31.20;93.60;;;32.08;43.93;98063.41;10523176;28;20238;-74
2023/08/12 09:51:48;;;;;;;4.80;4.45;;;31.30;93.40;;;32.39;43.71;98062.56;10523278;28;20227;-74
2023/08/12 09:56:58;;;;;;;4.93;4.40;;;31.70;92.80;;;32.13;44.21;98061.50;10523937;28;20231;-74
2023/08/12 10:02:06;;;;;;;4.10;3.80;;;31.50;93.00;;;32.63;41.25;98051.34;10524112;28;20320;-73
2023/08/12 10:07:12;;;;;;;5.18;3.88;;;31.90;91.40;;;32.83;42.50;98047.25;10520293;28;20262;-73
2023/08/12 10:12:16;;;;;;;4.25;3.85;;;32.30;91.60;;;32.87;40.81;98051.53;10512208;28;20583;-75
2023/08/12 10:17:24;;;;;;;3.78;3.50;;;32.30;90.80;;;32.87;40.51;98043.59;10516322;28;20276;-74
2023/08/12 10:22:45;;;;;;;3.70;3.40;;;32.00;90.70;;;32.87;40.92;98025.91;10517308;28;20717;-76
2023/08/12 10:27:48;;;;;;;3.00;2.80;;;32.10;90.30;;;33.07;39.55;98014.75;10511795;28;20227;-74
2023/08/12 10:32:53;;;;;;;3.60;2.88;;;32.40;89.10;;;33.28;38.23;98002.63;10521483;28;20214;-74
2023/08/12 10:37:56;;;;;;;3.33;3.08;;;32.80;86.50;;;33.19;38.66;98001.13;10514528;28;20255;-74
2023/08/12 10:42:59;;;;;;;3.42;3.05;;;32.60;86.70;;;33.40;37.61;97970.41;10519830;28;20223;-74
2023/08/12 10:48:19;;;;;;;3.35;3.05;;;33.00;84.50;;;33.68;37.00;97960.66;10515807;28;20254;-74
2023/08/12 10:53:29;;;;;;;3.72;3.40;;;33.10;84.40;;;33.49;38.33;97985.13;10517059;28;20604;-74
2023/08/12 10:58:36;;;;;;;4.30;3.20;;;32.40;87.40;;;33.35;39.37;98008.56;10518044;28;20239;-74
2023/08/12 11:03:44;;;;;;;4.82;3.90;;;32.40;88.80;;;33.62;38.49;98010.38;10516833;28;20227;-73
2023/08/12 11:08:48;;;;;;;3.70;3.40;;;32.60;87.50;;;33.63;39.22;98019.19;10513891;28;20219;-74
2023/08/12 11:13:55;;;;;;;3.38;3.03;;;33.00;87.40;;;33.45;38.65;98004.69;10512794;28;20800;-74
2023/08/12 11:19:00;;;;;;;3.70;3.08;;;32.60;87.60;;;33.46;38.54;98006.44;10521417;28;20231;-74
2023/08/12 11:24:05;;;;;;;3.80;3.13;;;32.30;86.80;;;33.13;38.85;98000.44;10517489;28;20226;-73
2023/08/12 11:29:12;;;;;;;3.70;3.40;;;31.90;88.20;;;32.82;40.71;97997.81;10517023;28;20223;-74
2023/08/12 11:34:17;;;;;;;4.00;3.63;;;31.50;90.00;;;32.60;41.09;97990.53;10514471;28;20215;-73
2023/08/12 11:39:21;;;;;;;3.95;3.38;;;31.20;90.20;;;32.45;41.42;97983.00;10512352;28;20237;-73
2023/08/12 11:44:24;;;;;;;3.60;3.30;;;31.20;90.90;;;32.65;40.29;97979.78;10513459;28;20237;-73
2023/08/12 11:49:28;;;;;;;3.83;3.53;;;31.50;89.40;;;32.86;40.15;97957.09;10517163;28;20231;-73
2023/08/12 11:54:32;;;;;;;3.53;3.22;;;31.90;88.40;;;32.59;39.67;97943.78;10516268;28;20219;-73
2023/08/12 11:59:36;;;;;;;3.30;3.00;;;31.70;87.50;;;32.46;40.30;97927.41;10518219;28;20223;-72
2023/08/12 12:04:43;;;;;;;3.55;3.25;;;31.60;88.50;;;32.27;38.85;97945.56;10514683;28;20246;-72
2023/08/12 12:09:46;;;;;;;7.88;7.18;;;31.50;85.30;;;32.37;40.00;97977.06;10517349;28;20319;-73
2023/08/12 12:14:49;;;;;;;17.60;11.65;;;31.50;87.90;;;32.38;39.86;97984.09;10510933;28;20506;-72
2023/08/12 12:19:59;;;;;;;6.15;5.55;;;31.50;87.40;;;32.51;39.98;97972.28;10512921;28;20223;-71
2023/08/12 12:25:08;;;;;;;6.30;5.22;;;31.50;87.90;;;32.80;39.06;97967.91;10511743;28;20234;-72
2023/08/12 12:30:14;;;;;;;4.88;4.10;;;31.80;85.90;;;32.65;38.57;97948.03;10509216;28;20250;-72
2023/08/12 12:35:19;;;;;;;5.18;4.68;;;31.70;85.30;;;32.73;39.67;97960.09;10508731;28;20509;-73
2023/08/12 12:40:22;;;;;;;6.20;4.20;;;31.80;86.60;;;32.92;39.41;97959.56;10512424;28;22589;-72
2023/08/12 12:45:25;;;;;;;6.32;4.60;;;32.00;87.00;;;32.87;39.18;97956.19;10509107;28;20227;-73
2023/08/12 12:50:30;;;;;;;4.78;3.72;;;31.80;86.90;;;32.61;38.75;97956.97;10513055;28;20300;-73
2023/08/12 12:55:33;;;;;;;7.03;4.00;;;31.50;86.10;;;31.73;45.48;98028.09;10505021;28;20666;-73
2023/08/12 13:00:36;;;;;;;5.22;4.43;;;30.80;92.30;;;30.38;50.57;98070.63;10511168;28;20321;-73
2023/08/12 13:05:41;;;;;;;5.90;4.50;;;29.30;96.30;;;29.33;57.99;98103.09;10516748;28;20249;-72
2023/08/12 13:10:44;;;;;;;5.40;4.90;;;28.00;99.90;;;27.85;72.46;98140.56;10511842;28;20223;-72
2023/08/12 13:15:48;;;;;;;6.10;5.60;;;26.70;99.90;;;26.76;79.63;98174.28;10514572;28;20227;-72
2023/08/12 13:20:52;;;;;;;12.27;6.55;;;25.60;99.90;;;25.27;92.57;98187.22;10507913;28;20230;-69
2023/08/12 13:25:56;;;;;;;9.55;6.35;;;24.70;99.90;;;24.22;100.00;98190.00;10513235;28;20227;-69
2023/08/12 13:30:59;;;;;;;9.50;6.13;;;23.60;99.90;;;23.58;100.00;98179.81;10508595;28;20242;-69
2023/08/12 13:36:04;;;;;;;6.63;5.88;;;22.90;99.90;;;23.30;100.00;98184.72;10509827;28;20318;-70
2023/08/12 13:41:07;;;;;;;8.23;6.78;;;22.60;99.90;;;22.90;100.00;98152.03;10509517;28;20226;-71
2023/08/12 13:46:10;;;;;;;8.10;6.70;;;22.40;99.90;;;23.05;100.00;98135.72;10504210;28;20231;-70
2023/08/12 13:51:15;;;;;;;8.02;7.22;;;22.30;99.90;;;23.03;100.00;98138.31;10510234;28;20235;-70
2023/08/12 13:56:18;;;;;;;7.70;6.90;;;22.30;99.90;;;22.75;100.00;98126.66;10509885;28;20234;-70
2023/08/12 14:01:21;;;;;;;7.95;6.90;;;22.20;99.90;;;22.68;100.00;98123.06;10515409;28;20252;-70
2023/08/12 14:06:26;;;;;;;8.05;7.30;;;22.10;99.90;;;22.67;100.00;98123.94;10507994;28;20608;-70
2023/08/12 14:11:29;;;;;;;9.05;7.43;;;22.10;99.90;;;22.57;100.00;98105.53;10514945;28;20772;-70
2023/08/12 14:16:33;;;;;;;9.85;8.25;;;22.00;99.90;;;22.62;100.00;98093.47;10500978;28;20647;-71
2023/08/12 14:21:37;;;;;;;8.07;7.38;;;22.10;99.90;;;22.67;100.00;98083.97;10510169;28;20220;-68
2023/08/12 14:26:41;;;;;;;8.73;7.50;;;22.20;99.90;;;22.78;100.00;98084.97;10504426;28;20232;-72
2023/08/12 14:31:44;;;;;;;8.88;7.97;;;22.20;99.90;;;22.89;100.00;98059.91;10513785;28;20239;-70
2023/08/12 14:36:48;;;;;;;7.95;7.15;;;22.30;99.90;;;23.10;100.00;98055.81;10516558;28;20235;-72
2023/08/12 14:41:52;;;;;;;8.07;7.30;;;22.40;99.90;;;23.11;100.00;98048.00;10514952;28;20223;-72
2023/08/12 14:46:55;;;;;;;8.18;7.28;;;22.60;99.90;;;23.30;100.00;98035.16;10511923;28;20897;-70
2023/08/12 14:51:59;;;;;;;7.78;7.07;;;22.80;99.90;;;23.23;100.00;98052.47;10513030;28;20728;-70
2023/08/12 14:57:03;;;;;;;7.55;6.95;;;22.80;99.90;;;23.55;100.00;98049.28;10518651;28;20243;-70
2023/08/12 15:02:06;;;;;;;7.82;5.70;;;23.10;99.90;;;23.53;100.00;98051.88;10515701;28;20228;-70
2023/08/12 15:07:10;;;;;;;7.05;6.35;;;23.10;99.90;;;23.72;100.00;98049.44;10514701;28;20238;-70
2023/08/12 15:12:14;;;;;;;7.05;6.35;;;23.30;99.90;;;23.59;100.00;98040.63;10508586;28;20224;-70
2023/08/12 15:17:17;;;;;;;7.50;6.80;;;23.20;99.90;;;23.60;100.00;98029.31;10515121;28;20257;-70
2023/08/12 15:22:22;;;;;;;7.50;6.90;;;23.20;99.90;;;23.88;100.00;98053.06;10519008;28;20226;-71
2023/08/12 15:27:25;;;;;;;12.07;11.00;;;23.40;99.90;;;23.95;100.00;98050.53;10526063;28;20236;-71
2023/08/12 15:32:28;;;;;;;8.90;8.20;;;23.50;99.90;;;24.15;100.00;98042.81;10518043;28;20594;-71
2023/08/12 15:37:32;;;;;;;11.93;10.85;;;23.60;99.90;;;24.26;100.00;98037.63;10516645;28;20228;-71
2023/08/12 15:42:36;;;;;;;6.97;6.28;;;23.70;99.90;;;24.14;100.00;98030.59;10524247;28;20853;-71
2023/08/12 15:47:39;;;;;;;7.55;6.95;;;23.70;99.90;;;24.27;100.00;98027.19;10515259;28;20692;-70
2023/08/12 15:52:43;;;;;;;6.72;6.15;;;23.80;99.90;;;24.48;100.00;98030.81;10511853;28;20658;-71
2023/08/12 15:57:46;;;;;;;7.30;6.68;;;23.90;99.90;;;24.38;100.00;98031.59;10515519;28;20403;-70
2023/08/12 16:02:49;;;;;;;7.35;6.70;;;23.70;99.90;;;24.20;100.00;98043.69;10519665;28;20227;-70
2023/08/12 16:07:54;;;;;;;5.72;4.93;;;23.60;99.90;;;24.10;100.00;98030.59;10511657;28;20319;-70
2023/08/12 16:12:57;;;;;;;5.85;5.35;;;23.50;99.90;;;24.01;100.00;98039.25;10508233;28;20723;-70
2023/08/12 16:18:01;;;;;;;6.40;5.72;;;23.40;99.90;;;23.92;100.00;98044.38;10510037;28;20243;-71
2023/08/12 16:23:06;;;;;;;7.00;6.38;;;23.20;99.90;;;23.93;100.00;98044.41;10508257;28;20220;-71
2023/08/12 16:28:09;;;;;;;7.45;6.85;;;23.20;99.90;;;23.95;100.00;98044.41;10510007;28;20235;-70
2023/08/12 16:33:13;;;;;;;7.25;6.55;;;23.30;99.90;;;24.03;100.00;98054.03;10510885;28;20604;-70
2023/08/12 16:38:19;;;;;;;6.15;4.90;;;23.30;99.90;;;24.09;100.00;98057.56;10515106;28;20238;-70
2023/08/12 16:43:22;;;;;;;6.75;5.10;;;23.30;99.90;;;24.04;100.00;98061.03;10508862;28;20224;-70
2023/08/12 16:48:25;;;;;;;6.07;5.47;;;23.30;99.90;;;23.94;100.00;98068.78;10508235;28;20714;-70
2023/08/12 16:53:29;;;;;;;6.45;5.88;;;23.10;99.90;;;23.87;100.00;98077.44;10513671;28;20219;-70
2023/08/12 16:58:33;;;;;;;12.95;11.85;;;23.10;99.90;;;23.72;100.00;98066.00;10499762;28;20592;-70
2023/08/12 17:03:36;;;;;;;7.40;6.70;;;23.10;99.90;;;23.69;100.00;98093.78;10512802;28;20589;-69
2023/08/12 17:08:40;;;;;;;7.05;6.45;;;23.10;99.90;;;23.63;100.00;98088.50;10511307;28;20224;-68
2023/08/12 17:13:43;;;;;;;6.95;6.25;;;23.00;99.90;;;23.51;100.00;98091.88;10517659;28;20227;-68
2023/08/12 17:18:46;;;;;;;7.38;6.68;;;22.80;99.90;;;23.45;100.00;98104.88;10503059;28;20228;-68
2023/08/12 17:23:51;;;;;;;8.00;7.20;;;22.80;99.90;;;23.45;100.00;98089.22;10509452;28;20238;-69
2023/08/12 17:28:54;;;;;;;7.82;7.22;;;22.80;99.90;;;23.34;100.00;98082.16;10512535;28;20695;-68
2023/08/12 17:33:57;;;;;;;8.23;7.53;;;22.70;99.90;;;23.41;100.00;98082.19;10521768;28;20232;-68
2023/08/12 17:39:02;;;;;;;9.43;8.63;;;22.70;99.90;;;23.43;100.00;98081.34;10509527;28;20327;-69
2023/08/12 17:44:06;;;;;;;8.73;8.02;;;22.80;99.90;;;23.51;100.00;98084.91;10506852;28;20227;-68
2023/08/12 17:49:09;;;;;;;12.77;11.52;;;22.80;99.90;;;23.56;100.00;98082.34;10501777;28;20251;-68
2023/08/12 17:54:14;;;;;;;9.43;8.63;;;22.90;99.90;;;23.56;100.00;98104.09;10509378;28;20607;-68
2023/08/12 17:59:17;;;;;;;10.13;9.25;;;22.90;99.90;;;23.60;100.00;98115.44;10515312;28;20242;-67
2023/08/12 18:04:21;;;;;;;9.13;8.32;;;22.90;99.90;;;23.67;100.00;98119.88;10519422;28;20223;-68
2023/08/12 18:09:25;;;;;;;10.70;9.70;;;23.00;99.90;;;23.67;100.00;98121.63;10515462;28;20232;-68
2023/08/12 18:14:28;;;;;;;11.77;10.57;;;22.90;99.90;;;23.66;100.00;98131.16;10508855;28;20223;-68
2023/08/12 18:19:31;;;;;;;9.50;8.70;;;22.90;99.90;;;23.57;100.00;98142.38;10513819;28;20248;-69
2023/08/12 18:24:36;;;;;;;9.45;8.55;;;22.80;99.90;;;23.55;100.00;98143.22;10519723;28;20231;-68
2023/08/12 18:29:42;;;;;;;10.45;9.40;;;22.80;99.90;;;23.47;100.00;98135.34;10520768;28;20230;-68
2023/08/12 18:34:45;;;;;;;9.63;8.63;;;22.70;99.90;;;23.37;100.00;98139.56;10514882;28;20230;-68
2023/08/12 18:39:49;;;;;;;11.30;10.10;;;22.60;99.90;;;23.35;100.00;98140.41;10517371;28;20240;-68
2023/08/12 18:44:53;;;;;;;9.20;8.40;;;22.60;99.90;;;23.28;100.00;98141.22;10515985;28;20231;-69
2023/08/12 18:49:56;;;;;;;8.40;7.70;;;22.50;99.90;;;23.11;100.00;98156.66;10518501;28;20315;-69
2023/08/12 18:55:01;;;;;;;10.35;8.02;;;22.40;99.90;;;22.94;100.00;98170.31;10510670;28;20234;-70
2023/08/12 19:00:05;;;;;;;8.07;7.40;;;22.20;99.90;;;22.84;100.00;98168.47;10520817;28;20319;-69
2023/08/12 19:05:11;;;;;;;8.00;7.30;;;22.10;99.90;;;22.74;100.00;98170.91;10512998;28;20232;-70
2023/08/12 19:10:15;;;;;;;8.30;7.50;;;21.90;99.90;;;22.62;100.00;98195.97;10516985;28;20695;-69
2023/08/12 19:15:19;;;;;;;7.25;6.55;;;21.80;99.90;;;22.60;100.00;98202.00;10512836;28;20778;-70
2023/08/12 19:20:23;;;;;;;8.05;6.97;;;21.80;99.90;;;22.53;100.00;98215.81;10513925;28;20230;-70
2023/08/12 19:25:27;;;;;;;8.70;7.53;;;21.70;99.90;;;22.49;100.00;98213.16;10519825;28;20695;-69
2023/08/12 19:30:31;;;;;;;8.02;7.20;;;21.70;99.90;;;22.41;100.00;98209.53;10511959;28;20610;-69
2023/08/12 19:35:34;;;;;;;8.38;7.78;;;21.70;99.90;;;22.38;100.00;98214.72;10512110;28;20223;-69
2023/08/12 19:40:38;;;;;;;9.25;8.45;;;21.60;99.90;;;22.32;100.00;98204.19;10516697;28;21008;-69
2023/08/12 19:45:42;;;;;;;8.60;7.40;;;21.60;99.90;;;22.18;100.00;98222.19;10515671;28;20616;-69
2023/08/12 19:50:46;;;;;;;8.73;7.88;;;21.40;99.90;;;22.07;100.00;98223.69;10514368;28;20223;-69
2023/08/12 19:55:52;;;;;;;8.48;7.85;;;21.30;99.90;;;22.07;100.00;98207.22;10507905;28;20224;-69
2023/08/12 20:00:55;;;;;;;9.48;8.60;;;21.30;99.90;;;21.89;100.00;98207.75;10518530;28;20223;-69
2023/08/12 20:05:59;;;;;;;8.38;7.57;;;21.20;99.90;;;21.84;100.00;98233.69;10513954;28;20556;-69
2023/08/12 20:11:03;;;;;;;9.50;8.75;;;21.10;99.90;;;21.86;100.00;98245.00;10507840;28;20222;-69
2023/08/12 20:16:06;;;;;;;8.85;8.05;;;21.10;99.90;;;21.89;100.00;98249.38;10512168;28;20251;-69
2023/08/12 20:21:09;;;;;;;8.80;8.15;;;21.10;99.90;;;21.91;100.00;98237.28;10514763;28;20242;-70
2023/08/12 20:26:14;;;;;;;8.57;7.88;;;21.10;99.90;;;21.88;100.00;98247.66;10514609;28;20230;-70
2023/08/12 20:31:18;;;;;;;8.23;7.45;;;21.10;99.90;;;21.87;100.00;98264.13;10505299;28;20223;-70
2023/08/12 20:36:22;;;;;;;8.95;8.05;;;21.10;99.90;;;21.75;100.00;98254.34;10507526;28;20235;-70
2023/08/12 20:41:26;;;;;;;9.07;8.18;;;21.00;99.90;;;21.68;100.00;98249.88;10509442;28;20219;-70
2023/08/12 20:46:29;;;;;;;10.70;8.93;;;21.00;99.90;;;21.68;100.00;98260.28;10512195;28;20595;-70
2023/08/12 20:51:32;;;;;;;9.60;8.70;;;20.90;99.90;;;21.65;100.00;98266.28;10516855;28;20309;-70
2023/08/12 20:56:37;;;;;;;17.63;15.82;;;21.00;99.90;;;21.68;100.00;98275.88;10513479;28;20230;-68